createdAt,value
2022-08-03T00:00:24.100Z,73.39
2022-08-03T00:01:16.255Z,73.17
2022-08-03T00:01:47.583Z,72.84
2022-08-03T00:02:19.083Z,72.68
2022-08-03T00:02:50.485Z,73.05
2022-08-03T00:03:22.394Z,72.65
2022-08-03T00:03:53.773Z,73.02
2022-08-03T00:04:34.338Z,73.12
2022-08-03T00:05:08.346Z,72.94
2022-08-03T00:05:40.088Z,73.21
2022-08-03T00:06:36.487Z,73.14
2022-08-03T00:07:08.535Z,73.34
2022-08-03T00:07:41.068Z,72.65
2022-08-03T00:08:12.563Z,73.13
2022-08-03T00:08:43.934Z,73.44
2022-08-03T00:09:15.269Z,72.62
2022-08-03T00:09:46.640Z,72.82
2022-08-03T00:10:17.964Z,73.78
2022-08-03T00:10:49.631Z,73.35
2022-08-03T00:11:40.859Z,73.73
2022-08-03T00:12:12.308Z,73.41
2022-08-03T00:12:43.793Z,73.38
2022-08-03T00:13:15.304Z,73.41
2022-08-03T00:13:46.938Z,72.93
2022-08-03T00:14:18.329Z,72.83
2022-08-03T00:14:49.656Z,72.59
2022-08-03T00:15:20.995Z,73.23
2022-08-03T00:17:00.612Z,72.85
2022-08-03T00:17:53.232Z,73.66
2022-08-03T00:18:23.257Z,73.24
2022-08-03T00:18:54.646Z,73.43
2022-08-03T00:19:26.108Z,72.79
2022-08-03T00:19:57.428Z,73.64
2022-08-03T00:20:28.763Z,73.37
2022-08-03T00:21:00.100Z,72.77
2022-08-03T00:21:31.680Z,73.44
2022-08-03T00:22:21.419Z,73.13
2022-08-03T00:22:55.450Z,73.62
2022-08-03T00:23:29.407Z,73.58
2022-08-03T00:24:18.187Z,73.61
2022-08-03T00:24:49.552Z,73.74
2022-08-03T00:25:20.991Z,73.11
2022-08-03T00:25:52.442Z,74.07
2022-08-03T00:26:23.849Z,73.52
2022-08-03T00:26:55.227Z,73.03
2022-08-03T00:27:26.603Z,72.99
2022-08-03T00:27:58.198Z,73.56
2022-08-03T00:28:29.638Z,73.28
2022-08-03T00:29:01.023Z,73.47
2022-08-03T00:30:40.399Z,73.84
2022-08-03T00:31:13.693Z,73.86
2022-08-03T00:31:52.115Z,73.53
2022-08-03T00:32:24.830Z,73.19
2022-08-03T00:32:56.698Z,73.65
2022-08-03T00:33:28.103Z,73.51
2022-08-03T00:34:29.816Z,72.74
2022-08-03T00:35:11.334Z,73.58
2022-08-03T00:35:51.023Z,73.46
2022-08-03T00:36:22.637Z,73.16
2022-08-03T00:36:54.011Z,73.68
2022-08-03T00:37:41.473Z,73.13
2022-08-03T00:38:13.364Z,73.14
2022-08-03T00:38:44.755Z,73.08
2022-08-03T00:39:16.135Z,72.81
2022-08-03T00:39:48.089Z,73.33
2022-08-03T00:40:20.744Z,73.93
2022-08-03T00:40:52.079Z,73.27
2022-08-03T00:41:23.428Z,72.88
2022-08-03T00:41:54.765Z,73.38
2022-08-03T00:42:27.392Z,72.54
2022-08-03T00:43:02.759Z,73.06
2022-08-03T00:43:34.244Z,73.79
2022-08-03T00:44:05.671Z,73.81
2022-08-03T00:44:41.952Z,73.69
2022-08-03T00:45:13.388Z,73.70
2022-08-03T00:45:44.769Z,74.30
2022-08-03T00:46:20.990Z,74.21
2022-08-03T00:46:53.193Z,73.98
2022-08-03T00:47:43.067Z,73.60
2022-08-03T00:48:29.422Z,73.96
2022-08-03T00:49:04.467Z,73.99
2022-08-03T00:49:37.311Z,73.65
2022-08-03T00:50:09.029Z,73.51
2022-08-03T00:52:10.991Z,74.17
2022-08-03T00:52:42.622Z,74.21
2022-08-03T00:53:14.720Z,74.36
2022-08-03T00:54:04.811Z,74.04
2022-08-03T00:54:37.792Z,74.14
2022-08-03T00:55:10.445Z,73.50
2022-08-03T00:55:42.176Z,73.91
2022-08-03T00:56:17.485Z,73.92
2022-08-03T00:56:59.618Z,74.09
2022-08-03T00:57:33.247Z,74.32
2022-08-03T00:58:06.603Z,73.60
2022-08-03T00:58:37.979Z,74.42
2022-08-03T00:59:10.475Z,74.20
2022-08-03T00:59:41.879Z,74.25
2022-08-03T01:00:16.312Z,74.25
2022-08-03T01:00:47.785Z,74.05
2022-08-03T01:01:19.279Z,74.33
2022-08-03T01:01:50.820Z,74.41
2022-08-03T01:02:22.334Z,73.84
2022-08-03T01:02:54.324Z,73.86
2022-08-03T01:03:25.700Z,74.34
2022-08-03T01:03:57.056Z,74.70
2022-08-03T01:04:46.964Z,73.52
2022-08-03T01:05:19.535Z,74.11
2022-08-03T01:06:27.167Z,73.34
2022-08-03T01:07:20.969Z,73.86
2022-08-03T01:08:29.406Z,74.10
2022-08-03T01:09:11.877Z,74.23
2022-08-03T01:10:01.738Z,74.33
2022-08-03T01:10:57.652Z,73.80
2022-08-03T01:12:00.742Z,74.06
2022-08-03T01:12:39.328Z,74.58
2022-08-03T01:13:13.958Z,74.21
2022-08-03T01:14:20.955Z,74.66
2022-08-03T01:15:00.183Z,74.73
2022-08-03T01:15:50.989Z,74.88
2022-08-03T01:16:35.856Z,73.77
2022-08-03T01:17:17.876Z,74.74
2022-08-03T01:17:58.007Z,74.14
2022-08-03T01:18:50.692Z,73.72
2022-08-03T01:19:42.791Z,74.68
2022-08-03T01:20:14.968Z,74.38
2022-08-03T01:20:49.628Z,74.07
2022-08-03T01:21:27.611Z,74.88
2022-08-03T01:22:37.145Z,74.84
2022-08-03T01:23:32.904Z,74.09
2022-08-03T01:25:43.015Z,74.78
2022-08-03T01:26:42.491Z,74.60
2022-08-03T01:27:49.573Z,74.69
2022-08-03T01:29:03.412Z,74.86
2022-08-03T01:29:49.089Z,74.29
2022-08-03T01:30:21.474Z,75.44
2022-08-03T01:31:13.169Z,74.37
2022-08-03T01:32:58.802Z,74.96
2022-08-03T01:33:22.030Z,75.35
2022-08-03T01:34:00.094Z,75.13
2022-08-03T01:34:36.511Z,74.82
2022-08-03T01:35:26.099Z,75.38
2022-08-03T01:36:01.942Z,74.73
2022-08-03T01:36:37.978Z,74.92
2022-08-03T01:37:12.175Z,75.34
2022-08-03T01:37:57.876Z,75.12
2022-08-03T01:38:35.719Z,75.47
2022-08-03T01:39:11.458Z,75.68
2022-08-03T01:39:44.255Z,76.05
2022-08-03T01:40:17.387Z,76.16
2022-08-03T01:40:53.857Z,75.39
2022-08-03T01:41:31.028Z,75.68
2022-08-03T01:42:06.208Z,75.65
2022-08-03T01:42:39.848Z,75.75
2022-08-03T01:44:26.193Z,75.73
2022-08-03T01:44:29.357Z,75.87
2022-08-03T01:45:53.923Z,75.99
2022-08-03T01:46:26.459Z,76.16
2022-08-03T01:47:00.477Z,76.62
2022-08-03T01:47:32.928Z,75.77
2022-08-03T01:48:05.483Z,76.91
2022-08-03T01:48:39.658Z,76.33
2022-08-03T01:49:13.260Z,76.64
2022-08-03T01:49:45.523Z,76.08
2022-08-03T01:50:22.426Z,76.24
2022-08-03T01:50:56.548Z,76.39
2022-08-03T01:51:58.384Z,76.73
2022-08-03T01:52:21.547Z,76.49
2022-08-03T01:52:54.679Z,76.06
2022-08-03T01:53:27.526Z,76.56
2022-08-03T01:54:00.509Z,76.06
2022-08-03T01:54:40.942Z,76.07
2022-08-03T01:55:32.034Z,75.88
2022-08-03T01:56:24.590Z,76.05
2022-08-03T01:56:58.914Z,76.83
2022-08-03T01:57:30.902Z,76.37
2022-08-03T01:58:05.300Z,76.81
2022-08-03T01:58:40.680Z,76.71
2022-08-03T01:59:14.460Z,76.85
2022-08-03T01:59:48.624Z,76.29
2022-08-03T02:00:20.220Z,76.85
2022-08-03T02:00:53.065Z,76.33
2022-08-03T02:01:25.907Z,76.37
2022-08-03T02:02:37.327Z,76.10
2022-08-03T02:03:12.091Z,76.27
2022-08-03T02:04:02.768Z,76.50
2022-08-03T02:04:35.782Z,75.71
2022-08-03T02:05:10.739Z,76.45
2022-08-03T02:05:46.273Z,75.45
2022-08-03T02:06:59.814Z,76.33
2022-08-03T02:07:12.691Z,75.86
2022-08-03T02:07:46.267Z,76.01
2022-08-03T02:08:19.056Z,76.83
2022-08-03T02:08:52.560Z,76.20
2022-08-03T02:09:26.287Z,76.71
2022-08-03T02:09:59.020Z,76.80
2022-08-03T02:10:34.804Z,76.35
2022-08-03T02:11:07.972Z,75.84
2022-08-03T02:11:58.079Z,76.45
2022-08-03T02:12:32.369Z,76.02
2022-08-03T02:13:06.567Z,76.35
2022-08-03T02:13:38.480Z,76.52
2022-08-03T02:14:10.957Z,76.15
2022-08-03T02:14:45.587Z,76.93
2022-08-03T02:15:19.180Z,77.10
2022-08-03T02:15:52.801Z,76.14
2022-08-03T02:16:24.613Z,76.82
2022-08-03T02:16:57.829Z,77.01
2022-08-03T02:17:38.594Z,77.52
2022-08-03T02:18:12.833Z,77.00
2022-08-03T02:18:47.647Z,76.31
2022-08-03T02:19:20.497Z,76.94
2022-08-03T02:19:52.379Z,76.92
2022-08-03T02:20:24.960Z,77.39
2022-08-03T02:20:57.615Z,77.88
2022-08-03T02:21:56.374Z,77.14
2022-08-03T02:22:24.936Z,77.42
2022-08-03T02:22:56.268Z,77.92
2022-08-03T02:23:27.757Z,77.13
2022-08-03T02:23:59.397Z,77.07
2022-08-03T02:24:51.212Z,77.80
2022-08-03T02:25:23.520Z,77.82
2022-08-03T02:25:59.957Z,77.76
2022-08-03T02:26:37.919Z,77.27
2022-08-03T02:27:22.152Z,77.21
2022-08-03T02:28:01.655Z,77.18
2022-08-03T02:28:37.163Z,76.70
2022-08-03T02:29:15.208Z,76.89
2022-08-03T02:29:51.114Z,76.80
2022-08-03T02:30:29.687Z,77.15
2022-08-03T02:31:05.008Z,77.63
2022-08-03T02:31:37.692Z,77.34
2022-08-03T02:32:14.280Z,77.64
2022-08-03T02:32:51.620Z,77.35
2022-08-03T02:33:34.419Z,77.27
2022-08-03T02:34:14.283Z,76.98
2022-08-03T02:34:50.397Z,77.28
2022-08-03T02:35:43.786Z,78.07
2022-08-03T02:36:19.063Z,77.67
2022-08-03T02:36:53.576Z,77.28
2022-08-03T02:37:30.902Z,77.53
2022-08-03T02:38:04.975Z,77.33
2022-08-03T02:38:40.945Z,77.46
2022-08-03T02:39:33.239Z,77.88
2022-08-03T02:40:07.708Z,77.65
2022-08-03T02:40:41.812Z,77.74
2022-08-03T02:41:20.991Z,78.00
2022-08-03T02:42:02.056Z,78.01
2022-08-03T02:42:36.519Z,77.26
2022-08-03T02:43:11.879Z,78.26
2022-08-03T02:44:06.084Z,77.86
2022-08-03T02:44:40.248Z,77.88
2022-08-03T02:45:13.916Z,77.15
2022-08-03T02:46:07.956Z,77.42
2022-08-03T02:47:01.167Z,77.28
2022-08-03T02:47:53.881Z,77.30
2022-08-03T02:48:29.124Z,77.43
2022-08-03T02:49:49.472Z,78.18
2022-08-03T02:49:57.177Z,77.92
2022-08-03T02:51:21.279Z,77.49
2022-08-03T02:51:54.808Z,77.84
2022-08-03T02:52:28.763Z,77.67
2022-08-03T02:53:02.751Z,77.92
2022-08-03T02:53:36.226Z,78.01
2022-08-03T02:54:09.482Z,77.94
2022-08-03T02:54:41.556Z,77.33
2022-08-03T02:55:16.008Z,77.73
2022-08-03T02:55:49.124Z,77.18
2022-08-03T02:56:22.349Z,77.26
2022-08-03T02:56:57.462Z,77.23
2022-08-03T02:57:31.163Z,78.02
2022-08-03T02:58:04.388Z,76.96
2022-08-03T02:58:37.568Z,77.63
2022-08-03T02:59:11.928Z,77.11
2022-08-03T02:59:44.480Z,77.88
2022-08-03T03:00:19.652Z,77.38
2022-08-03T03:01:01.751Z,77.12
2022-08-03T03:01:33.912Z,77.40
2022-08-03T03:02:05.920Z,77.49
2022-08-03T03:03:31.849Z,77.09
2022-08-03T03:04:10.719Z,76.76
2022-08-03T03:05:52.794Z,76.79
2022-08-03T03:05:53.495Z,77.65
2022-08-03T03:07:17.921Z,77.24
2022-08-03T03:07:51.853Z,78.31
2022-08-03T03:08:26.049Z,77.50
2022-08-03T03:09:00.667Z,78.28
2022-08-03T03:09:41.635Z,78.16
2022-08-03T03:10:14.571Z,77.99
2022-08-03T03:10:46.876Z,78.27
2022-08-03T03:11:20.835Z,77.73
2022-08-03T03:11:53.782Z,78.02
2022-08-03T03:12:26.570Z,77.42
2022-08-03T03:12:59.477Z,78.04
2022-08-03T03:13:32.328Z,77.56
2022-08-03T03:14:04.032Z,78.21
2022-08-03T03:14:37.232Z,77.97
2022-08-03T03:15:08.986Z,77.28
2022-08-03T03:15:42.020Z,77.67
2022-08-03T03:16:15.204Z,77.04
2022-08-03T03:16:50.621Z,77.16
2022-08-03T03:17:24.519Z,77.35
2022-08-03T03:18:47.855Z,78.24
2022-08-03T03:19:20.484Z,77.89
2022-08-03T03:20:10.598Z,78.15
2022-08-03T03:21:00.750Z,77.13
2022-08-03T03:21:33.702Z,77.63
2022-08-03T03:22:07.367Z,78.19
2022-08-03T03:22:41.036Z,78.20
2022-08-03T03:23:17.710Z,78.32
2022-08-03T03:23:49.418Z,78.13
2022-08-03T03:24:21.179Z,77.89
2022-08-03T03:24:54.648Z,78.12
2022-08-03T03:25:26.364Z,78.15
2022-08-03T03:25:58.904Z,78.08
2022-08-03T03:26:30.659Z,77.71
2022-08-03T03:27:03.463Z,77.85
2022-08-03T03:27:35.239Z,78.58
2022-08-03T03:28:06.875Z,78.46
2022-08-03T03:28:38.606Z,78.56
2022-08-03T03:29:10.012Z,78.84
2022-08-03T03:29:42.163Z,77.69
2022-08-03T03:30:13.705Z,78.33
2022-08-03T03:30:45.242Z,78.41
2022-08-03T03:31:24.459Z,78.62
2022-08-03T03:31:57.299Z,77.84
2022-08-03T03:32:29.508Z,78.12
2022-08-03T03:33:01.023Z,77.82
2022-08-03T03:33:34.313Z,78.08
2022-08-03T03:34:05.735Z,77.45
2022-08-03T03:34:38.741Z,77.87
2022-08-03T03:35:10.680Z,78.29
2022-08-03T03:36:01.151Z,77.43
2022-08-03T03:36:32.552Z,77.70
2022-08-03T03:37:05.004Z,78.44
2022-08-03T03:37:36.333Z,78.68
2022-08-03T03:38:07.715Z,78.38
2022-08-03T03:38:39.169Z,78.01
2022-08-03T03:39:16.123Z,78.73
2022-08-03T03:39:47.751Z,78.36
2022-08-03T03:40:19.465Z,78.02
2022-08-03T03:40:51.236Z,77.63
2022-08-03T03:41:22.606Z,78.49
2022-08-03T03:41:54.283Z,78.31
2022-08-03T03:42:26.011Z,77.73
2022-08-03T03:43:15.933Z,77.66
2022-08-03T03:44:05.691Z,78.35
2022-08-03T03:44:37.132Z,78.16
2022-08-03T03:45:27.953Z,77.69
2022-08-03T03:46:00.579Z,77.55
2022-08-03T03:46:32.192Z,78.28
2022-08-03T03:47:03.780Z,78.17
2022-08-03T03:47:54.515Z,78.56
2022-08-03T03:48:26.568Z,78.36
2022-08-03T03:48:58.159Z,77.69
2022-08-03T03:49:31.004Z,77.97
2022-08-03T03:50:04.198Z,78.29
2022-08-03T03:50:57.188Z,78.12
2022-08-03T03:51:28.597Z,78.29
2022-08-03T03:51:59.988Z,78.62
2022-08-03T03:52:34.443Z,78.46
2022-08-03T03:53:10.246Z,78.05
2022-08-03T03:53:53.598Z,78.08
2022-08-03T03:54:25.551Z,77.49
2022-08-03T03:56:11.008Z,78.07
2022-08-03T03:57:00.910Z,77.83
2022-08-03T03:57:33.889Z,77.60
2022-08-03T03:58:05.774Z,77.80
2022-08-03T03:58:37.107Z,78.59
2022-08-03T03:59:08.505Z,78.30
2022-08-03T03:59:41.524Z,78.18
2022-08-03T04:00:14.619Z,77.91
2022-08-03T04:00:46.210Z,78.13
2022-08-03T04:01:18.050Z,78.55
2022-08-03T04:02:39.227Z,77.95
2022-08-03T04:03:12.068Z,77.83
2022-08-03T04:03:43.726Z,78.14
2022-08-03T04:04:33.388Z,78.68
2022-08-03T04:05:23.988Z,78.87
2022-08-03T04:06:14.363Z,78.59
2022-08-03T04:07:04.551Z,78.31
2022-08-03T04:08:14.133Z,78.29
2022-08-03T04:09:03.945Z,78.54
2022-08-03T04:10:58.910Z,78.85
2022-08-03T04:11:37.591Z,78.41
2022-08-03T04:12:09.157Z,78.61
2022-08-03T04:12:50.520Z,78.71
2022-08-03T04:13:22.924Z,78.37
2022-08-03T04:13:57.081Z,78.31
2022-08-03T04:14:35.880Z,78.30
2022-08-03T04:15:08.872Z,78.08
2022-08-03T04:15:42.024Z,78.31
2022-08-03T04:16:17.904Z,78.74
2022-08-03T04:17:09.511Z,78.08
2022-08-03T04:17:42.787Z,79.06
2022-08-03T04:18:16.033Z,78.33
2022-08-03T04:18:52.393Z,78.52
2022-08-03T04:19:29.367Z,78.44
2022-08-03T04:20:03.558Z,78.89
2022-08-03T04:21:30.020Z,78.06
2022-08-03T04:22:09.614Z,78.32
2022-08-03T04:22:42.029Z,78.45
2022-08-03T04:23:15.595Z,78.76
2022-08-03T04:23:50.999Z,78.75
2022-08-03T04:24:26.577Z,78.80
2022-08-03T04:25:27.720Z,78.84
2022-08-03T04:26:01.399Z,78.55
2022-08-03T04:26:36.164Z,78.51
2022-08-03T04:27:13.322Z,78.28
2022-08-03T04:28:29.790Z,78.86
2022-08-03T04:28:43.323Z,78.28
2022-08-03T04:29:15.812Z,79.14
2022-08-03T04:29:51.575Z,77.98
2022-08-03T04:30:23.243Z,78.20
2022-08-03T04:30:56.978Z,79.05
2022-08-03T04:31:29.990Z,79.34
2022-08-03T04:32:03.145Z,78.87
2022-08-03T04:32:36.982Z,77.84
2022-08-03T04:33:08.388Z,78.34
2022-08-03T04:33:42.608Z,78.78
2022-08-03T04:34:14.011Z,79.19
2022-08-03T04:34:45.820Z,78.80
2022-08-03T04:35:18.664Z,78.86
2022-08-03T04:36:13.096Z,78.33
2022-08-03T04:36:49.841Z,78.69
2022-08-03T04:37:43.275Z,79.14
2022-08-03T04:38:18.412Z,79.11
2022-08-03T04:39:13.391Z,78.33
2022-08-03T04:40:05.937Z,77.94
2022-08-03T04:40:41.110Z,78.74
2022-08-03T04:41:13.198Z,78.93
2022-08-03T04:42:07.783Z,78.63
2022-08-03T04:42:39.501Z,78.99
2022-08-03T04:43:14.942Z,79.10
2022-08-03T04:43:49.603Z,78.69
2022-08-03T04:44:28.287Z,78.76
2022-08-03T04:45:02.000Z,77.85
2022-08-03T04:45:34.167Z,78.04
2022-08-03T04:46:08.146Z,78.42
2022-08-03T04:46:39.973Z,78.86
2022-08-03T04:47:18.226Z,78.18
2022-08-03T04:47:50.532Z,78.83
2022-08-03T04:48:22.382Z,78.38
2022-08-03T04:48:54.770Z,78.91
2022-08-03T04:49:27.162Z,78.23
2022-08-03T04:50:00.889Z,78.79
2022-08-03T04:50:32.679Z,78.05
2022-08-03T04:51:04.470Z,78.70
2022-08-03T04:51:38.963Z,77.88
2022-08-03T04:52:11.013Z,78.02
2022-08-03T04:52:42.953Z,78.21
2022-08-03T04:53:14.375Z,78.75
2022-08-03T04:53:45.877Z,78.55
2022-08-03T04:55:29.798Z,78.14
2022-08-03T04:56:05.698Z,79.36
2022-08-03T04:56:40.080Z,78.66
2022-08-03T04:57:30.173Z,78.67
2022-08-03T04:58:02.764Z,79.19
2022-08-03T04:58:34.164Z,79.25
2022-08-03T04:59:05.579Z,78.70
2022-08-03T04:59:39.227Z,78.63
2022-08-03T05:00:50.107Z,79.25
2022-08-03T05:01:22.488Z,79.46
2022-08-03T05:02:12.585Z,78.44
2022-08-03T05:02:43.987Z,79.14
2022-08-03T05:03:23.828Z,78.80
2022-08-03T05:03:55.851Z,79.53
2022-08-03T05:04:27.303Z,78.87
2022-08-03T05:04:59.142Z,78.94
2022-08-03T05:05:48.649Z,78.52
2022-08-03T05:06:47.860Z,78.79
2022-08-03T05:07:24.867Z,79.42
2022-08-03T05:07:56.691Z,78.97
2022-08-03T05:08:28.459Z,79.75
2022-08-03T05:08:59.860Z,79.40
2022-08-03T05:09:49.623Z,78.74
2022-08-03T05:10:22.446Z,79.12
2022-08-03T05:10:53.818Z,79.56
2022-08-03T05:11:25.213Z,78.80
2022-08-03T05:12:15.725Z,78.40
2022-08-03T05:12:48.920Z,78.77
2022-08-03T05:13:20.261Z,78.19
2022-08-03T05:13:51.687Z,78.67
2022-08-03T05:14:28.074Z,79.13
2022-08-03T05:15:00.522Z,78.96
2022-08-03T05:15:31.876Z,78.18
2022-08-03T05:16:03.336Z,78.89
2022-08-03T05:16:34.733Z,78.94
2022-08-03T05:17:06.280Z,78.84
2022-08-03T05:17:37.643Z,79.01
2022-08-03T05:18:27.475Z,79.25
2022-08-03T05:18:58.808Z,79.40
2022-08-03T05:20:38.383Z,78.40
2022-08-03T05:21:10.636Z,79.25
2022-08-03T05:21:52.461Z,78.60
2022-08-03T05:22:43.652Z,78.74
2022-08-03T05:23:15.280Z,78.17
2022-08-03T05:23:46.614Z,78.65
2022-08-03T05:24:17.999Z,79.08
2022-08-03T05:24:49.463Z,78.91
2022-08-03T05:25:23.348Z,78.85
2022-08-03T05:25:58.542Z,79.08
2022-08-03T05:26:30.067Z,78.92
2022-08-03T05:27:01.433Z,79.44
2022-08-03T05:27:51.563Z,78.90
2022-08-03T05:28:23.000Z,78.82
2022-08-03T05:29:43.517Z,79.09
2022-08-03T05:30:31.136Z,78.70
2022-08-03T05:31:25.471Z,78.69
2022-08-03T05:31:56.836Z,79.10
2022-08-03T05:32:28.192Z,79.39
2022-08-03T05:32:59.953Z,79.13
2022-08-03T05:33:49.912Z,78.46
2022-08-03T05:34:21.254Z,79.43
2022-08-03T05:34:52.739Z,78.83
2022-08-03T05:35:57.187Z,79.06
2022-08-03T05:36:16.808Z,79.23
2022-08-03T05:37:07.349Z,79.20
2022-08-03T05:37:39.256Z,79.20
2022-08-03T05:38:28.617Z,78.71
2022-08-03T05:39:02.814Z,78.61
2022-08-03T05:39:34.603Z,79.15
2022-08-03T05:41:20.037Z,78.64
2022-08-03T05:41:48.255Z,78.51
2022-08-03T05:42:38.256Z,79.25
2022-08-03T05:43:09.605Z,78.88
2022-08-03T05:43:41.028Z,79.09
2022-08-03T05:44:12.375Z,79.67
2022-08-03T05:44:43.718Z,79.64
2022-08-03T05:45:15.175Z,79.01
2022-08-03T05:45:46.479Z,79.23
2022-08-03T05:46:37.907Z,79.46
2022-08-03T05:47:09.500Z,79.34
2022-08-03T05:47:46.480Z,79.31
2022-08-03T05:49:06.582Z,79.68
2022-08-03T05:49:38.079Z,78.85
2022-08-03T05:50:13.164Z,79.46
2022-08-03T05:50:44.511Z,79.25
2022-08-03T05:51:16.019Z,79.39
2022-08-03T05:51:47.426Z,79.75
2022-08-03T05:52:31.208Z,79.89
2022-08-03T05:53:02.963Z,79.49
2022-08-03T05:53:35.054Z,79.21
2022-08-03T05:54:06.415Z,79.60
2022-08-03T05:54:55.320Z,79.04
2022-08-03T05:55:29.007Z,79.62
2022-08-03T05:56:14.576Z,79.11
2022-08-03T05:56:46.930Z,78.88
2022-08-03T05:57:18.296Z,78.44
2022-08-03T05:57:49.696Z,78.86
2022-08-03T05:58:21.546Z,79.20
2022-08-03T05:59:54.616Z,79.27
2022-08-03T06:00:30.256Z,78.75
2022-08-03T06:01:02.584Z,78.76
2022-08-03T06:01:34.008Z,78.58
2022-08-03T06:02:05.573Z,78.58
2022-08-03T06:02:37.283Z,78.71
2022-08-03T06:03:08.603Z,79.17
2022-08-03T06:03:40.467Z,78.96
2022-08-03T06:04:12.018Z,78.61
2022-08-03T06:04:43.354Z,78.57
2022-08-03T06:06:03.503Z,78.93
2022-08-03T06:06:34.819Z,78.61
2022-08-03T06:07:06.157Z,77.97
2022-08-03T06:07:37.932Z,78.39
2022-08-03T06:08:09.308Z,78.02
2022-08-03T06:08:42.563Z,78.66
2022-08-03T06:09:13.952Z,78.96
2022-08-03T06:10:36.061Z,78.76
2022-08-03T06:10:56.284Z,78.76
2022-08-03T06:11:27.652Z,78.72
2022-08-03T06:11:59.003Z,77.81
2022-08-03T06:12:50.157Z,78.91
2022-08-03T06:13:21.991Z,78.55
2022-08-03T06:14:12.237Z,78.83
2022-08-03T06:14:43.604Z,78.58
2022-08-03T06:15:15.617Z,78.57
2022-08-03T06:15:46.944Z,77.95
2022-08-03T06:16:18.331Z,78.66
2022-08-03T06:16:49.676Z,77.98
2022-08-03T06:17:21.018Z,78.33
2022-08-03T06:17:52.694Z,78.34
2022-08-03T06:18:24.620Z,79.07
2022-08-03T06:18:55.987Z,77.73
2022-08-03T06:19:27.432Z,78.28
2022-08-03T06:19:58.807Z,77.73
2022-08-03T06:20:30.245Z,78.57
2022-08-03T06:21:14.477Z,78.00
2022-08-03T06:22:05.900Z,77.81
2022-08-03T06:22:37.247Z,78.42
2022-08-03T06:23:22.428Z,78.31
2022-08-03T06:24:12.664Z,78.60
2022-08-03T06:24:53.544Z,77.65
2022-08-03T06:25:25.930Z,77.84
2022-08-03T06:25:57.413Z,78.11
2022-08-03T06:26:28.849Z,77.85
2022-08-03T06:27:00.415Z,78.24
2022-08-03T06:27:37.319Z,78.03
2022-08-03T06:28:15.013Z,78.00
2022-08-03T06:29:13.794Z,78.19
2022-08-03T06:29:45.168Z,78.26
2022-08-03T06:30:21.048Z,77.97
2022-08-03T06:30:52.707Z,77.47
2022-08-03T06:31:33.018Z,77.79
2022-08-03T06:32:05.513Z,77.60
2022-08-03T06:32:38.099Z,77.60
2022-08-03T06:34:31.243Z,77.78
2022-08-03T06:34:32.542Z,77.74
2022-08-03T06:35:08.512Z,77.96
2022-08-03T06:35:40.483Z,77.73
2022-08-03T06:36:13.887Z,77.08
2022-08-03T06:36:45.328Z,77.39
2022-08-03T06:37:16.711Z,77.00
2022-08-03T06:37:50.254Z,76.96
2022-08-03T06:38:21.871Z,76.68
2022-08-03T06:38:53.196Z,77.26
2022-08-03T06:39:24.526Z,76.85
2022-08-03T06:39:55.918Z,77.88
2022-08-03T06:40:31.304Z,77.91
2022-08-03T06:41:02.739Z,77.73
2022-08-03T06:41:38.203Z,77.79
2022-08-03T06:42:16.175Z,77.19
2022-08-03T06:42:47.665Z,77.75
2022-08-03T06:43:21.662Z,77.29
2022-08-03T06:44:03.031Z,77.39
2022-08-03T06:44:37.535Z,77.04
2022-08-03T06:45:09.721Z,76.77
2022-08-03T06:45:41.836Z,77.13
2022-08-03T06:46:13.273Z,76.95
2022-08-03T06:46:44.707Z,77.24
2022-08-03T06:47:16.273Z,77.14
2022-08-03T06:47:48.022Z,76.97
2022-08-03T06:48:39.393Z,76.79
2022-08-03T06:49:16.111Z,77.21
2022-08-03T06:50:16.485Z,76.58
2022-08-03T06:50:41.632Z,76.72
2022-08-03T06:51:17.359Z,76.44
2022-08-03T06:52:03.277Z,77.31
2022-08-03T06:52:37.692Z,76.90
2022-08-03T06:53:19.762Z,76.97
2022-08-03T06:53:52.735Z,76.67
2022-08-03T06:54:24.738Z,76.98
2022-08-03T06:54:56.525Z,76.60
2022-08-03T06:55:28.440Z,77.05
2022-08-03T06:56:00.246Z,76.86
2022-08-03T06:56:31.817Z,76.15
2022-08-03T06:57:03.781Z,75.61
2022-08-03T06:57:35.313Z,76.07
2022-08-03T06:58:06.816Z,76.35
2022-08-03T06:58:38.459Z,76.61
2022-08-03T07:00:07.445Z,76.35
2022-08-03T07:00:08.644Z,76.16
2022-08-03T07:01:02.255Z,75.93
2022-08-03T07:01:34.323Z,75.70
2022-08-03T07:02:09.810Z,76.01
2022-08-03T07:02:41.621Z,76.42
2022-08-03T07:03:13.367Z,75.43
2022-08-03T07:03:52.059Z,75.58
2022-08-03T07:04:24.223Z,75.99
2022-08-03T07:04:58.945Z,76.39
2022-08-03T07:05:33.612Z,75.48
2022-08-03T07:06:05.450Z,75.62
2022-08-03T07:06:38.310Z,75.78
2022-08-03T07:07:09.945Z,76.40
2022-08-03T07:07:44.721Z,75.51
2022-08-03T07:08:19.452Z,76.09
2022-08-03T07:09:08.441Z,75.53
2022-08-03T07:09:40.124Z,75.55
2022-08-03T07:10:13.516Z,75.44
2022-08-03T07:11:37.290Z,76.39
2022-08-03T07:12:58.034Z,76.01
2022-08-03T07:13:29.700Z,76.24
2022-08-03T07:14:01.348Z,76.58
2022-08-03T07:14:51.761Z,76.30
2022-08-03T07:15:53.970Z,75.83
2022-08-03T07:16:15.026Z,75.94
2022-08-03T07:16:46.642Z,76.11
2022-08-03T07:18:08.362Z,75.92
2022-08-03T07:18:58.174Z,75.54
2022-08-03T07:19:29.792Z,75.56
2022-08-03T07:20:03.504Z,75.99
2022-08-03T07:20:35.112Z,75.44
2022-08-03T07:21:09.017Z,75.54
2022-08-03T07:21:40.727Z,75.70
2022-08-03T07:22:30.867Z,75.85
2022-08-03T07:23:02.328Z,75.18
2022-08-03T07:23:34.745Z,74.53
2022-08-03T07:24:06.281Z,75.16
2022-08-03T07:24:38.052Z,75.41
2022-08-03T07:25:10.155Z,74.81
2022-08-03T07:25:41.808Z,74.84
2022-08-03T07:26:16.121Z,74.27
2022-08-03T07:26:47.545Z,74.68
2022-08-03T07:27:19.915Z,74.60
2022-08-03T07:27:51.890Z,74.18
2022-08-03T07:28:42.393Z,74.47
2022-08-03T07:29:15.496Z,74.24
2022-08-03T07:29:47.026Z,74.30
2022-08-03T07:30:18.563Z,74.37
2022-08-03T07:30:50.214Z,74.81
2022-08-03T07:31:21.639Z,73.97
2022-08-03T07:31:53.093Z,74.79
2022-08-03T07:32:25.081Z,74.43
2022-08-03T07:32:56.639Z,74.81
2022-08-03T07:33:46.529Z,73.90
2022-08-03T07:34:18.039Z,74.11
2022-08-03T07:34:49.443Z,73.93
2022-08-03T07:35:24.924Z,73.35
2022-08-03T07:36:15.607Z,73.01
2022-08-03T07:36:47.073Z,73.13
2022-08-03T07:37:18.561Z,73.57
2022-08-03T07:37:54.303Z,73.80
2022-08-03T07:38:27.634Z,73.42
2022-08-03T07:38:59.084Z,72.91
2022-08-03T07:39:30.754Z,73.26
2022-08-03T07:40:04.186Z,73.17
2022-08-03T07:40:36.043Z,74.14
2022-08-03T07:41:07.510Z,74.83
2022-08-03T07:41:39.149Z,74.63
2022-08-03T07:42:13.417Z,73.78
2022-08-03T07:42:44.881Z,74.51
2022-08-03T07:43:17.532Z,74.61
2022-08-03T07:43:49.132Z,74.04
2022-08-03T07:44:20.838Z,73.25
2022-08-03T07:44:52.376Z,73.08
2022-08-03T07:45:24.562Z,72.80
2022-08-03T07:45:56.076Z,73.21
2022-08-03T07:46:27.570Z,72.79
2022-08-03T07:47:53.331Z,73.02
2022-08-03T07:48:25.656Z,72.98
2022-08-03T07:48:57.275Z,73.44
2022-08-03T07:49:29.010Z,72.88
2022-08-03T07:50:00.742Z,73.06
2022-08-03T07:50:32.333Z,73.19
2022-08-03T07:51:05.779Z,73.04
2022-08-03T07:51:37.879Z,72.81
2022-08-03T07:52:51.309Z,72.37
2022-08-03T07:53:22.810Z,72.00
2022-08-03T07:53:57.487Z,71.64
2022-08-03T07:54:29.256Z,71.79
2022-08-03T07:55:00.870Z,71.59
2022-08-03T07:55:32.359Z,72.22
2022-08-03T07:56:04.004Z,72.67
2022-08-03T07:56:43.154Z,72.53
2022-08-03T07:57:14.704Z,72.63
2022-08-03T07:57:46.905Z,71.88
2022-08-03T07:58:24.157Z,71.10
2022-08-03T07:58:58.869Z,71.42
2022-08-03T07:59:30.449Z,71.67
2022-08-03T08:00:22.233Z,71.79
2022-08-03T08:00:53.944Z,71.05
2022-08-03T08:01:32.769Z,71.94
2022-08-03T08:02:06.996Z,72.24
2022-08-03T08:02:38.799Z,71.51
2022-08-03T08:03:11.436Z,72.19
2022-08-03T08:03:53.306Z,70.94
2022-08-03T08:04:26.650Z,70.19
2022-08-03T08:05:02.153Z,70.90
2022-08-03T08:05:37.537Z,70.73
2022-08-03T08:06:09.220Z,70.85
2022-08-03T08:06:40.935Z,70.45
2022-08-03T08:07:12.414Z,70.08
2022-08-03T08:08:02.169Z,70.75
2022-08-03T08:08:33.554Z,70.87
2022-08-03T08:09:04.934Z,70.83
2022-08-03T08:09:36.550Z,70.72
2022-08-03T08:10:10.093Z,70.20
2022-08-03T08:10:58.238Z,70.13
2022-08-03T08:11:34.810Z,69.71
2022-08-03T08:12:30.501Z,70.33
2022-08-03T08:13:03.536Z,69.96
2022-08-03T08:13:38.196Z,70.27
2022-08-03T08:14:15.543Z,70.38
2022-08-03T08:14:51.704Z,70.41